createdAt,value
2023-05-10T16:47:14.760Z,6460.00
2023-05-10T16:48:14.649Z,6420.00
2023-05-10T16:49:14.652Z,6404.00
2023-05-10T16:50:14.660Z,6392.00
2023-05-10T16:51:14.673Z,6364.00
2023-05-10T16:52:14.679Z,6312.00
2023-05-10T16:53:14.721Z,6224.00
2023-05-10T16:54:14.712Z,6116.00
2023-05-10T16:55:14.904Z,6016.00
2023-05-10T16:56:14.710Z,5904.00
2023-05-10T16:57:14.721Z,5832.00
2023-05-10T16:58:14.741Z,5788.00
2023-05-10T16:59:14.740Z,5728.00
2023-05-10T17:00:14.744Z,5636.00
2023-05-10T17:01:14.800Z,5548.00
2023-05-10T17:02:14.833Z,5452.00
2023-05-10T17:03:14.962Z,5404.00
2023-05-10T17:04:14.872Z,5396.00
2023-05-10T17:05:14.863Z,5412.00
2023-05-10T17:06:14.820Z,5424.00
2023-05-10T17:07:15.631Z,5448.00
2023-05-10T17:08:14.834Z,5456.00
2023-05-10T17:09:14.844Z,5432.00
2023-05-10T17:10:14.856Z,5396.00
2023-05-10T17:11:14.867Z,5356.00
2023-05-10T17:12:14.868Z,5304.00
2023-05-10T17:13:14.881Z,5220.00
2023-05-10T17:14:14.892Z,5148.00
2023-05-10T17:15:15.036Z,5124.00
2023-05-10T17:16:15.003Z,5112.00
2023-05-10T17:17:14.925Z,5096.00
2023-05-10T17:18:14.932Z,5056.00
2023-05-10T17:19:14.972Z,5012.00
2023-05-10T17:20:14.964Z,4944.00
2023-05-10T17:21:14.954Z,4868.00
2023-05-10T17:22:14.978Z,4796.00
2023-05-10T17:23:14.982Z,4736.00
2023-05-10T17:24:15.005Z,4664.00
2023-05-10T17:25:15.183Z,4584.00
2023-05-10T17:26:15.010Z,4484.00
2023-05-10T17:27:15.218Z,4376.00
2023-05-10T17:28:15.033Z,4252.00
2023-05-10T17:29:15.036Z,4120.00
2023-05-10T17:30:15.050Z,3988.00
2023-05-10T17:31:15.145Z,3864.00
2023-05-10T17:32:15.089Z,3756.00
2023-05-10T17:33:15.085Z,3684.00
2023-05-10T17:34:15.086Z,3628.00
2023-05-10T17:35:15.235Z,3580.00
2023-05-10T17:36:17.724Z,3512.00
2023-05-10T17:37:15.124Z,3456.00
2023-05-10T17:38:15.121Z,3424.00
2023-05-10T17:39:15.146Z,3396.00
2023-05-10T17:40:15.148Z,3376.00
2023-05-10T17:41:15.359Z,3364.00
2023-05-10T17:42:15.174Z,3368.00
2023-05-10T17:43:15.179Z,3368.00
2023-05-10T17:44:15.180Z,3368.00
2023-05-10T17:45:15.455Z,3372.00
2023-05-10T17:46:15.228Z,3372.00
2023-05-10T17:47:15.219Z,3372.00
2023-05-10T17:48:15.232Z,3352.00
2023-05-10T17:49:15.279Z,3308.00
2023-05-10T17:50:15.245Z,3228.00
2023-05-10T17:51:15.286Z,3108.00
2023-05-10T17:52:15.264Z,2944.00
2023-05-10T17:53:15.278Z,2772.00
2023-05-10T17:54:15.285Z,2620.00
2023-05-10T17:55:15.476Z,2480.00
2023-05-10T17:56:15.301Z,2360.00
2023-05-10T17:57:15.305Z,2248.00
2023-05-10T17:58:15.319Z,2160.00
2023-05-10T17:59:15.324Z,2084.00
2023-05-10T18:00:15.339Z,2012.00
2023-05-10T18:01:15.393Z,1944.00
2023-05-10T18:02:15.360Z,1884.00
2023-05-10T18:03:15.362Z,1840.00
2023-05-10T18:04:15.401Z,1804.00
2023-05-10T18:05:15.659Z,1768.00
2023-05-10T18:06:15.393Z,1728.00
2023-05-10T18:07:15.445Z,1680.00
2023-05-10T18:08:15.409Z,1632.00
2023-05-10T18:09:15.416Z,1580.00
2023-05-10T18:10:15.453Z,1528.00
2023-05-10T18:11:15.439Z,1476.00
2023-05-10T18:12:15.452Z,1420.00
2023-05-10T18:13:15.461Z,1372.00
2023-05-10T18:14:20.577Z,1320.00
2023-05-10T18:15:15.584Z,1276.00
2023-05-10T18:16:15.493Z,1232.00
2023-05-10T18:17:15.488Z,1188.00
2023-05-10T18:18:15.498Z,1148.00
2023-05-10T18:19:15.518Z,1104.00
2023-05-10T18:20:15.554Z,1064.00
2023-05-10T18:21:15.527Z,1020.00
2023-05-10T18:22:15.740Z,980.00
2023-05-10T18:23:15.573Z,944.00
2023-05-10T18:24:16.867Z,904.00
2023-05-10T18:25:15.673Z,864.00
2023-05-10T18:26:15.575Z,824.00
2023-05-10T18:27:15.576Z,788.00
2023-05-10T18:28:15.593Z,744.00
2023-05-10T18:29:15.612Z,708.00
2023-05-10T18:30:15.617Z,676.00
2023-05-10T18:31:15.661Z,636.00
2023-05-10T18:32:15.829Z,604.00
2023-05-10T18:33:15.632Z,572.00
2023-05-10T18:34:15.653Z,540.00
2023-05-10T18:35:15.676Z,512.00
2023-05-10T18:36:15.683Z,480.00
2023-05-10T18:37:15.676Z,448.00
2023-05-10T18:38:15.685Z,420.00
2023-05-10T18:39:15.717Z,392.00
2023-05-10T18:40:15.708Z,360.00
2023-05-10T18:41:15.715Z,336.00
2023-05-10T18:42:15.721Z,308.00
2023-05-10T18:43:15.721Z,284.00
2023-05-10T18:44:15.728Z,264.00
2023-05-10T18:45:16.017Z,240.00
2023-05-10T18:46:15.774Z,224.00
2023-05-10T18:47:15.770Z,204.00
2023-05-10T18:48:15.775Z,188.00
2023-05-10T18:49:15.987Z,176.00
2023-05-10T18:50:15.794Z,160.00
2023-05-10T18:51:15.797Z,148.00
2023-05-10T18:52:15.810Z,136.00
2023-05-10T18:53:15.811Z,120.00
2023-05-10T18:54:15.826Z,108.00
2023-05-10T18:55:16.261Z,100.00
2023-05-10T18:56:15.836Z,92.00
2023-05-10T18:57:15.847Z,84.00
2023-05-10T18:58:15.859Z,76.00
2023-05-10T18:59:15.864Z,64.00
2023-05-10T19:00:15.875Z,60.00
2023-05-10T19:01:17.192Z,56.00
2023-05-10T19:02:15.932Z,48.00
2023-05-10T19:03:15.903Z,44.00
2023-05-10T19:04:15.989Z,36.00
2023-05-10T19:05:16.312Z,36.00
2023-05-10T19:06:15.928Z,28.00
2023-05-10T19:07:15.943Z,24.00
2023-05-10T19:08:15.950Z,24.00
2023-05-10T19:09:15.956Z,20.00
2023-05-10T19:10:15.981Z,20.00
2023-05-10T19:11:15.990Z,16.00
2023-05-10T19:12:15.973Z,12.00
2023-05-10T19:13:15.993Z,8.00
2023-05-10T19:14:15.999Z,8.00
2023-05-10T19:15:17.661Z,8.00
2023-05-10T19:16:16.112Z,8.00
2023-05-10T19:17:16.058Z,4.00
2023-05-10T19:18:16.235Z,8.00
2023-05-10T19:19:16.044Z,4.00
2023-05-10T19:20:16.536Z,4.00
2023-05-10T19:21:16.176Z,4.00
2023-05-10T19:22:16.065Z,4.00
2023-05-10T19:23:16.119Z,4.00
2023-05-10T19:24:16.085Z,0.00
2023-05-10T19:25:16.304Z,4.00
2023-05-10T19:26:16.170Z,4.00
2023-05-10T19:27:16.139Z,4.00
2023-05-10T19:28:16.125Z,0.00
2023-05-10T19:29:16.122Z,0.00
2023-05-10T19:30:16.135Z,0.00
2023-05-10T19:31:16.188Z,0.00
2023-05-10T19:32:16.149Z,0.00
2023-05-10T19:33:16.170Z,0.00
2023-05-10T19:34:16.164Z,0.00
2023-05-10T19:35:16.488Z,0.00
2023-05-10T19:36:16.188Z,0.00
2023-05-10T19:38:03.742Z,0.00
2023-05-10T19:39:03.750Z,0.00
2023-05-10T19:40:03.769Z,0.00
2023-05-10T19:41:03.781Z,0.00
2023-05-10T19:42:03.778Z,0.00
2023-05-10T19:43:03.811Z,0.00
2023-05-10T19:44:03.795Z,0.00
2023-05-10T19:45:03.815Z,0.00
2023-05-10T19:46:03.808Z,0.00
2023-05-10T19:47:03.873Z,0.00
2023-05-10T19:48:03.915Z,0.00
2023-05-10T19:49:03.842Z,0.00
2023-05-10T19:50:03.884Z,0.00
2023-05-10T19:51:03.860Z,0.00
2023-05-10T19:52:03.852Z,0.00
2023-05-10T19:53:03.875Z,0.00
2023-05-10T19:54:03.902Z,0.00
2023-05-10T19:55:03.882Z,0.00
2023-05-10T19:56:03.897Z,0.00
2023-05-10T19:57:03.898Z,0.00
2023-05-10T19:58:03.918Z,0.00
2023-05-10T19:59:03.963Z,0.00
2023-05-10T20:00:03.937Z,0.00
2023-05-10T20:01:04.034Z,0.00
2023-05-10T20:02:03.949Z,0.00
2023-05-10T20:03:03.966Z,0.00
2023-05-10T20:04:04.032Z,0.00
2023-05-10T20:05:03.961Z,0.00
2023-05-10T20:06:04.036Z,0.00
2023-05-10T20:07:03.984Z,0.00
2023-05-10T20:08:03.998Z,0.00
2023-05-10T20:09:04.013Z,0.00
2023-05-10T20:10:04.008Z,0.00
2023-05-10T20:11:04.059Z,0.00
2023-05-10T20:12:04.031Z,0.00
2023-05-10T20:13:04.042Z,0.00
2023-05-10T20:14:04.041Z,0.00
2023-05-10T20:15:04.073Z,0.00
2023-05-10T20:16:04.059Z,0.00
2023-05-10T20:17:04.163Z,0.00
2023-05-10T20:18:04.105Z,0.00
2023-05-10T20:19:04.157Z,0.00
2023-05-10T20:20:04.115Z,0.00
2023-05-10T20:21:04.120Z,0.00
2023-05-10T20:22:04.116Z,0.00
2023-05-10T20:23:04.168Z,0.00
2023-05-10T20:24:04.124Z,0.00
2023-05-10T20:25:04.134Z,0.00
2023-05-10T20:26:04.155Z,0.00
2023-05-10T20:27:04.155Z,0.00
2023-05-10T20:28:04.157Z,0.00
2023-05-10T20:29:04.175Z,0.00
2023-05-10T20:30:04.174Z,0.00
2023-05-10T20:31:04.258Z,0.00
2023-05-10T20:32:04.192Z,0.00
2023-05-10T20:33:04.312Z,0.00
2023-05-10T20:34:04.216Z,0.00
2023-05-10T20:35:04.225Z,0.00
2023-05-10T20:36:04.236Z,0.00
2023-05-10T20:37:04.244Z,0.00
2023-05-10T20:38:04.260Z,0.00
2023-05-10T20:39:04.259Z,0.00
2023-05-10T20:40:04.262Z,0.00
2023-05-10T20:41:04.283Z,0.00
2023-05-10T20:42:04.279Z,0.00
2023-05-10T20:43:04.298Z,0.00
2023-05-10T20:44:04.301Z,0.00
2023-05-10T20:45:04.320Z,0.00
2023-05-10T20:46:04.456Z,0.00
2023-05-10T20:47:04.357Z,0.00
2023-05-10T20:48:04.371Z,0.00
2023-05-10T20:49:04.344Z,0.00
2023-05-10T20:50:04.388Z,0.00
2023-05-10T20:51:04.360Z,0.00
2023-05-10T20:52:04.375Z,0.00
2023-05-10T20:53:04.381Z,0.00
2023-05-10T20:54:04.420Z,0.00
2023-05-10T20:55:04.416Z,0.00
2023-05-10T20:56:04.415Z,0.00
2023-05-10T20:57:04.406Z,0.00
2023-05-10T20:58:05.241Z,0.00
2023-05-10T20:59:04.443Z,0.00
2023-05-10T21:00:04.439Z,0.00
2023-05-10T21:01:04.446Z,0.00
2023-05-10T21:02:04.523Z,0.00
2023-05-10T21:03:04.560Z,0.00
2023-05-10T21:04:04.474Z,0.00
2023-05-10T21:05:04.499Z,0.00
2023-05-10T21:06:04.489Z,0.00
2023-05-10T21:07:04.499Z,0.00
2023-05-10T21:08:04.507Z,0.00
2023-05-10T21:09:04.508Z,0.00
2023-05-10T21:10:04.535Z,0.00
2023-05-10T21:11:04.531Z,0.00
2023-05-10T21:12:04.553Z,0.00
2023-05-10T21:13:04.543Z,0.00
2023-05-10T21:14:04.566Z,0.00
2023-05-10T21:15:04.563Z,0.00
2023-05-10T21:16:04.616Z,0.00
2023-05-10T21:17:04.577Z,0.00
2023-05-10T21:18:04.682Z,0.00
2023-05-10T21:19:04.719Z,0.00
2023-05-10T21:20:04.690Z,0.00
2023-05-10T21:21:04.616Z,0.00
2023-05-10T21:22:04.620Z,0.00
2023-05-10T21:23:04.634Z,0.00
2023-05-10T21:24:04.636Z,0.00
2023-05-10T21:25:04.649Z,0.00
2023-05-10T21:26:04.706Z,0.00
2023-05-10T21:27:04.676Z,0.00
2023-05-10T21:28:04.677Z,0.00
2023-05-10T21:29:04.720Z,0.00
2023-05-10T21:30:04.822Z,0.00
2023-05-10T21:31:04.708Z,0.00
2023-05-10T21:32:04.888Z,0.00
2023-05-10T21:33:04.943Z,0.00
2023-05-10T21:34:04.722Z,0.00
2023-05-10T21:35:04.760Z,0.00
2023-05-10T21:36:04.842Z,0.00
2023-05-10T21:37:04.754Z,0.00
2023-05-10T21:38:04.765Z,0.00
2023-05-10T21:39:04.771Z,0.00
2023-05-10T21:41:04.796Z,0.00
2023-05-10T21:42:04.831Z,0.00
2023-05-10T21:43:04.804Z,0.00
2023-05-10T21:44:04.816Z,0.00
2023-05-10T21:45:04.821Z,0.00
2023-05-10T21:46:04.938Z,0.00
2023-05-10T21:47:04.832Z,0.00
2023-05-10T21:48:04.869Z,0.00
2023-05-10T21:49:04.856Z,0.00
2023-05-10T21:50:04.867Z,0.00
2023-05-10T21:51:04.901Z,0.00
2023-05-10T21:52:04.922Z,0.00
2023-05-10T21:53:04.896Z,0.00
2023-05-10T21:54:04.891Z,0.00
2023-05-10T21:55:04.910Z,0.00
2023-05-10T21:56:04.905Z,0.00
2023-05-10T21:57:04.925Z,0.00
2023-05-10T21:58:04.924Z,0.00
2023-05-10T21:59:04.958Z,0.00
2023-05-10T22:00:04.938Z,0.00
2023-05-10T22:01:04.994Z,0.00
2023-05-10T22:02:05.010Z,0.00
2023-05-10T22:03:05.088Z,0.00
2023-05-10T22:04:04.976Z,0.00
2023-05-10T22:05:04.980Z,0.00
2023-05-10T22:06:05.001Z,0.00
2023-05-10T22:07:05.028Z,0.00
2023-05-10T22:08:05.008Z,0.00
2023-05-10T22:09:05.013Z,0.00
2023-05-10T22:10:05.022Z,0.00
2023-05-10T22:11:05.073Z,0.00
2023-05-10T22:12:05.058Z,0.00
2023-05-10T22:13:05.064Z,0.00
2023-05-10T22:14:05.057Z,0.00
2023-05-10T22:16:05.075Z,0.00
2023-05-10T22:17:05.159Z,0.00
2023-05-10T22:18:05.192Z,0.00
2023-05-10T22:19:05.225Z,0.00
2023-05-10T22:20:05.102Z,0.00
2023-05-10T22:21:05.126Z,0.00
2023-05-10T22:22:05.122Z,0.00
2023-05-10T22:23:05.162Z,0.00
2023-05-10T22:24:05.145Z,0.00
2023-05-10T22:25:05.153Z,0.00
2023-05-10T22:26:05.156Z,0.00
2023-05-10T22:27:05.167Z,0.00
2023-05-10T22:28:05.180Z,0.00
2023-05-10T22:29:05.189Z,0.00
2023-05-10T22:30:05.200Z,0.00
2023-05-10T22:31:05.249Z,0.00
2023-05-10T22:32:05.223Z,0.00
2023-05-10T22:33:05.261Z,0.00
2023-05-10T22:34:05.236Z,0.00
2023-05-10T22:35:05.250Z,0.00
2023-05-10T22:36:05.247Z,0.00
2023-05-10T22:37:05.256Z,0.00
2023-05-10T22:38:05.269Z,0.00
2023-05-10T22:39:05.284Z,0.00
2023-05-10T22:40:05.325Z,0.00
2023-05-10T22:41:05.287Z,0.00
2023-05-10T22:42:05.314Z,0.00
2023-05-10T22:43:05.306Z,0.00
2023-05-10T22:44:05.312Z,0.00
2023-05-10T22:45:05.319Z,0.00
2023-05-10T22:46:05.359Z,0.00
2023-05-10T22:47:05.333Z,0.00
2023-05-10T22:48:05.428Z,0.00
2023-05-10T22:49:05.354Z,0.00
2023-05-10T22:50:05.364Z,0.00
2023-05-10T22:51:05.371Z,0.00
2023-05-10T22:52:05.373Z,0.00
2023-05-10T22:53:05.388Z,0.00
2023-05-10T22:54:05.389Z,0.00
2023-05-10T22:55:05.434Z,0.00
2023-05-10T22:56:05.415Z,0.00
2023-05-10T22:57:05.412Z,0.00
2023-05-10T22:58:05.420Z,0.00
2023-05-10T22:59:05.437Z,0.00
2023-05-10T23:00:05.436Z,0.00
2023-05-10T23:01:05.460Z,0.00
2023-05-10T23:02:05.517Z,0.00
2023-05-10T23:03:05.494Z,0.00
2023-05-10T23:04:05.475Z,0.00
2023-05-10T23:05:05.586Z,0.00
2023-05-10T23:06:05.496Z,0.00
2023-05-10T23:07:05.507Z,0.00
2023-05-10T23:08:05.513Z,0.00
2023-05-10T23:09:05.522Z,0.00
2023-05-10T23:10:05.520Z,0.00
2023-05-10T23:11:05.548Z,0.00
2023-05-10T23:12:05.548Z,0.00
2023-05-10T23:13:05.544Z,0.00
2023-05-10T23:14:05.555Z,0.00
2023-05-10T23:15:05.569Z,0.00
2023-05-10T23:16:05.662Z,0.00
2023-05-10T23:17:05.593Z,0.00
2023-05-10T23:18:05.640Z,0.00
2023-05-10T23:19:05.648Z,0.00
2023-05-10T23:20:05.610Z,0.00
2023-05-10T23:21:05.617Z,0.00
2023-05-10T23:22:05.638Z,0.00
2023-05-10T23:23:05.635Z,0.00
2023-05-10T23:24:05.674Z,0.00
2023-05-10T23:25:05.670Z,0.00
2023-05-10T23:26:05.665Z,0.00
2023-05-10T23:27:05.683Z,0.00
2023-05-10T23:28:05.675Z,0.00
2023-05-10T23:29:05.705Z,0.00
2023-05-10T23:30:05.690Z,0.00
2023-05-10T23:31:05.717Z,0.00
2023-05-10T23:32:05.759Z,0.00
2023-05-10T23:33:05.812Z,0.00
2023-05-10T23:34:05.718Z,0.00
2023-05-10T23:35:05.731Z,0.00
2023-05-10T23:36:05.747Z,0.00
2023-05-10T23:37:05.745Z,0.00
2023-05-10T23:38:05.759Z,0.00
2023-05-10T23:39:05.777Z,0.00
2023-05-10T23:40:05.773Z,0.00
2023-05-10T23:41:05.780Z,0.00
2023-05-10T23:42:05.797Z,0.00
2023-05-10T23:43:05.823Z,0.00
2023-05-10T23:44:05.811Z,0.00
2023-05-10T23:45:05.819Z,0.00
2023-05-10T23:46:05.945Z,0.00
2023-05-10T23:47:05.836Z,0.00
2023-05-10T23:48:05.876Z,0.00
2023-05-10T23:49:05.854Z,0.00
2023-05-10T23:50:05.866Z,0.00
2023-05-10T23:51:05.875Z,0.00
2023-05-10T23:52:05.890Z,0.00
2023-05-10T23:53:05.879Z,0.00
2023-05-10T23:54:05.897Z,0.00
2023-05-10T23:55:05.904Z,0.00
2023-05-10T23:56:05.912Z,0.00
2023-05-10T23:57:05.916Z,0.00
2023-05-10T23:58:05.933Z,0.00
2023-05-10T23:59:06.062Z,0.00
